Regional Weather Synopsis
Issued by NWS Denver/Boulder, CO

Home | Current Version | Previous Version | Text Only | Print | Product List | Glossary On
Versions: 1 2 3 4 5 6 7 8 9 10 11 12 13 14 15 16 17 18 19 20 21 22 23 24 25 26 27 28 29 30 31 32 33 34 35 36 37 38 39 40 41 42 43 44 45 46 47 48 49 50
324
NZUS99 KBOU 181527
SYNBOU

Hot-Air Balloon Forecast for Colorado
National Weather Service Denver/Boulder, Colorado
0925 MDT Thursday, April 18, 2019


* * * * * Northeast Colorado * * * * *

METAR KFNL 181456Z AUTO 35014G18KT 10SM -RA FEW028 SCT038 OVC049 07/02
       A3021 RMK AO2 RAB14 SLP209 P0000 60000 T00720022 51027
METAR KFNL 181356Z AUTO 10007KT 10SM FEW080 BKN100 05/02 A3018 RMK AO2
       SLP202 T00500022
METAR KFNL 181256Z AUTO VRB03KT 10SM OVC095 04/02 A3015 RMK AO2 SLP188
       T00440022

METAR KGXY 181456Z AUTO 36007KT 10SM BKN070 07/02 A3022 RMK AO2 RAB10E31
       SLP231 P0000 60000 T00670022 53022
METAR KGXY 181356Z AUTO 03012KT 10SM FEW040 SCT050 BKN070 06/01 A3020
       RMK AO2 SLP220 T00610011
METAR KGXY 181256Z AUTO 05004KT 10SM FEW100 04/01 A3016 RMK AO2 SLP212
       T00390006

METAR KLMO 181515Z AUTO 05006KT 10SM SCT022 SCT029 OVC100 09/04 A3024
       RMK AO2 T00880036
METAR KLMO 181455Z AUTO 03005KT 10SM OVC100 08/04 A3023 RMK AO2
       T00800037
METAR KLMO 181435Z AUTO 00000KT 10SM OVC100 07/04 A3021 RMK AO2
       T00710037

METAR KBDU 181512Z AUTO 06006KT 10SM BKN100 07/03 A3021 RMK AO2
METAR KBDU 181453Z AUTO 00000KT 10SM BKN090 OVC120 07/03 A3020 RMK
       AO2
METAR KBDU 181435Z AUTO 09003KT 10SM OVC090 06/03 A3018 RMK AO2

METAR KEIK 181518Z AUTO 07009KT 10SM SCT022 SCT027 BKN085 08/03 A3027
       RMK AO2 T00830027
METAR KEIK 181454Z AUTO 09003KT 10SM BKN085 BKN110 08/03 A3025 RMK AO2
       T00770028
METAR KEIK 181436Z AUTO 00000KT 10SM SCT075 OVC090 06/04 A3024 RMK AO2
       T00630036

KBJC 181514Z 1815/1912 06011KT P6SM VCSH FEW040 BKN070
     FM181700 33013G21KT P6SM FEW060 SCT100
     FM190100 34008KT P6SM SCT150
     FM190400 26005KT P6SM FEW250
METAR KBJC 181445Z 10004KT 40SM FEW040 BKN070 07/02 A3019 RMK VIRGA
        NW-SE
METAR KBJC 181347Z 20004KT 10SM FEW020 BKN070 05/03 A3016 RMK VIRGA
        NW-SE
SPECI KBJC 181320Z 18005KT 10SM FEW030 BKN100 05/03 A3016

KDEN 181514Z 1815/1918 06012G19KT P6SM FEW045 BKN080
     FM181600 04016G24KT P6SM -SHRA SCT040 BKN060
     FM181700 36019G29KT P6SM SCT045 BKN090
     FM181900 34024G34KT P6SM FEW070 SCT100
     FM190000 35018G27KT P6SM FEW090 SCT150
     FM190200 02011G17KT P6SM SCT150
     FM190400 12007KT P6SM SCT250
     FM190700 22005KT P6SM SCT250
     FM191400 28005KT P6SM SCT250
METAR KDEN 181453Z 05017KT 10SM FEW055 SCT075 BKN090 07/03 A3020 RMK AO2
       SLP195 T00670028 51023
METAR KDEN 181353Z 10003KT 10SM FEW060 BKN085 05/03 A3017 RMK AO2 SLP187
        T00500033
METAR KDEN 181253Z 14003KT 10SM FEW060 BKN095 04/02 A3014 RMK AO2 SLP173
       T00440022

METAR KFTG 181450Z 04018KT 10SM SCT045 BKN050 BKN100 07/03 A3021
METAR KFTG 181350Z 08005KT 10SM BKN055 BKN075 07/03 A3019
METAR KFTG 181252Z AUTO 16003KT 10SM OVC095 05/03 A3015 RMK AO2
       T00500031

KBKF 181226Z 1812/1915 03009KT 9999 VCSH SCT020 BKN040
      610406 QNH3012INS
      BECMG 1817/1818 01012G18KT 9999 NSW BKN060 620605 QNH3016INS
      TEMPO 1820/1901 01015G25KT 520009
      BECMG 1903/1904 VRB06KT 9999 SCT060 QNH3021INS TX14/1822Z
      TN04/1812Z
METAR KBKF 181458Z 07010KT 10SM SCT060 BKN090 06/03 A3019 RMK AO2A
       SLP200 T00640031 51020
METAR KBKF 181358Z 16005KT 10SM FEW060 BKN090 05/02 A3016 RMK AO2A
       SLP192 T00480022

KAPA 181514Z 1815/1912 06011KT P6SM FEW060 BKN090
     FM181700 35016G25KT P6SM VCSH SCT045 BKN080
     FM181900 35018G27KT P6SM FEW060 SCT090
     FM190000 35014G21KT P6SM FEW080 SCT150
     FM190200 35010KT P6SM SCT150
     FM190500 16005KT P6SM FEW250
METAR KAPA 181453Z 09006KT 10SM BKN075 BKN090 07/02 A3018 RMK AO2 SLP205
       T00670017 53016
METAR KAPA 181353Z 13005KT 10SM FEW065 BKN095 05/02 A3016 RMK AO2 SLP200
        T00500017
METAR KAPA 181253Z 18008KT 10SM BKN095 02/00 A3014 RMK AO2 SLP195
       T00220000

METAR KMNH 181512Z AUTO 01010G18KT 10SM CLR 05/00 A3021 RMK AO2
METAR KMNH 181454Z AUTO 01011G16KT 10SM CLR 05/00 A3020 RMK AO2
METAR KMNH 181430Z AUTO 29007KT 10SM SCT060 SCT070 BKN090 05/00 A3019
       RMK AO2

METAR KFMM 181515Z AUTO 34022G27KT 10SM 07/02 A3021 RMK AO2
       T00710018
METAR KFMM 181455Z AUTO 01019G23KT 10SM -RA 07/02 A3020 RMK AO2
       T00680018
METAR KFMM 181435Z AUTO 35015G21KT 10SM 07/01 A3019 RMK AO2
       T00710013

METAR KSTK 181510Z AUTO 32022G31KT 10SM SCT035 SCT050 OVC080 07/02 A3015
       RMK AO2
METAR KSTK 181455Z AUTO 32019G26KT 10SM SCT035 SCT060 OVC080 07/02 A3014
       RMK AO2
METAR KSTK 181430Z AUTO 33027G31KT 10SM SCT050 BKN070 OVC085 07/02 A3014
       RMK AO2

METAR KAKO 181453Z AUTO 34031G42KT 10SM FEW070 SCT080 08/01 A3016 RMK
       AO2 PK WND 33042/1450 SLP200 T00780006 51023
METAR KAKO 181353Z AUTO 32025G31KT 10SM BKN060 BKN100 07/01 A3014 RMK
       AO2 PK WND 33037/1300 SLP197 T00670011
METAR KAKO 181253Z AUTO 33024G30KT 10SM SCT055 BKN070 OVC085 06/01 A3010
       RMK AO2 PK WND 33030/1252 SLP177 T00560006

SPECI KLIC 181508Z AUTO 36017G26KT 10SM BKN025 BKN037 05/01 A3020 RMK
       AO2 PK WND 36026/1501 T00500011
METAR KLIC 181455Z AUTO 01018KT 10SM SCT023 SCT038 06/02 A3019 RMK AO2
       PK WND 36030/1442 SLP205 T00610017 51027
METAR KLIC 181355Z AUTO 35014G19KT 10SM SCT049 SCT060 OVC080 04/02 A3017
       RMK AO2 SLP200 T00440022

METAR KHEQ 181510Z AUTO 33029G35KT 10SM CLR 12/02 A3011 RMK AO2
METAR KHEQ 181455Z AUTO 33024G30KT 10SM CLR 12/02 A3010 RMK AO2
METAR KHEQ 181435Z AUTO 32019G29KT 10SM CLR 11/02 A3010 RMK AO2


METAR K2V5 181515Z AUTO 33019G27KT 10SM SCT120 10/01 A3011 RMK AO2
METAR K2V5 181455Z AUTO 33023G31KT 10SM SCT110 11/01 A3011 RMK AO2
METAR K2V5 181435Z AUTO 33025G30KT 10SM SCT100 11/01 A3011 RMK AO2

METAR KITR 181453Z AUTO 32018G23KT 10SM FEW060 SCT070 OVC090 09/02 A3013
       RMK AO2 PK WND 32027/1416 SLP190 T00890022 51024
METAR KITR 181353Z AUTO 31019KT 10SM SCT060 BKN080 OVC110 06/03 A3013
       RMK AO2 SLP188 T00610033
METAR KITR 181253Z AUTO 31008KT 10SM CLR 03/02 A3007 RMK AO2 SLP167
       T00330017

Sunrise/Sunset for 04/18/2019
Fort Collins - 06:17:07 MDT / 19:42:08 MDT
Denver       - 06:17:51 MDT / 19:40:32 MDT
Sterling     - 06:09:34 MDT / 19:34:51 MDT

Denver/Boulder (KFTG) 04/18/19 15:19 UTC
Radar VAD winds      Height      Dir/Spd(kt)
                  17000 FT MSL...330/051
                  16800 FT MSL...327/050
                  16000 FT MSL...322/043
                  15000 FT MSL...318/042
                  14500 FT MSL...318/043
                  14000 FT MSL...318/043
                  13000 FT MSL...321/039
                  12700 FT MSL...322/041
                  12000 FT MSL...323/038
                  11200 FT MSL...326/034
                  11000 FT MSL...328/035
                  10000 FT MSL...335/030
                  10000 FT MSL...331/030
                   9000 FT MSL...332/025
                   8900 FT MSL...331/024
                   8100 FT MSL...338/020
                   8000 FT MSL...334/021
                   7300 FT MSL...359/018
                   7000 FT MSL...012/019
                   6600 FT MSL...003/015

Denver/Boulder Aviation Discussion
Issued at 0952 UTC Thursday, April 18, 2019

.AVIATION...(For the 06Z TAFS through 06Z Thursday night)
Issued at 257 AM MDT Thu Apr 18 2019
May see an isolated light shower thru 15z with ceilings down to 6000
ft or so.  Otherwise expect VFR conditions the rest of the day and
tonight.  Winds will be light and variable early this morning but
become northerly by 15z and then gradually increase thru early
aftn. By 18z, sustained winds of 20 to 25 mph with gusts up to 40
mph will be possible thru 00z. After 00z winds should quickly
diminish and turn more northeast. By 06z winds should become light
drainage.


* * * * * Southeast Colorado * * * * *

METAR K4BM 181512Z AUTO 34011G20KT 320V020 10SM SCT024 SCT029 M01/M09
       A3029 RMK AO2 LTG DSNT NW
METAR K4BM 181452Z AUTO 34009G19KT 310V030 10SM SCT021 SCT029 SCT037
       M01/M09 A3029 RMK AO2 LTG DSNT NW
METAR K4BM 181434Z AUTO 34007G19KT 300V050 10SM SCT027 SCT033 SCT060
       M02/M09 A3029 RMK AO2 LTG DSNT NW

METAR KAFF 181456Z AUTO 16004KT 10SM OVC070 05/00 A3017 RMK AO2 SLP201
       T00520000 51013 $
METAR KAFF 181356Z AUTO 00000KT 10SM BKN080 03/00 A3016 RMK AO2 SLP192
       T00311002 $

KCOS 181143Z 1812/1912 35010KT P6SM FEW040
     FM181500 35015G25KT P6SM BKN080
     FM181900 36020G30KT P6SM BKN080
     FM190200 01009KT P6SM FEW200
     FM190600 VRB06KT P6SM SKC
METAR KCOS 181454Z 14005KT 10SM FEW030 BKN085 BKN140 07/01 A3019 RMK AO2
       SLP199 T00670011 50013
METAR KCOS 181354Z 15004KT 10SM FEW025 FEW070 SCT160 06/01 A3019 RMK AO2
       SLP203 T00560011
METAR KCOS 181254Z 16007KT 10SM FEW023 FEW070 03/M01 A3017 RMK AO2
       SLP196 T00331006

METAR KABH 181456Z AUTO 24009KT A3018 RMK AO2 SLPNO 51014 $
METAR KABH 181356Z AUTO 28009KT A3018 RMK AO2 SLPNO $
METAR KABH 181256Z AUTO 31004KT A3014 RMK AO2 SLPNO $

METAR KFLY 181515Z AUTO 21005G15KT 10SM OVC065 05/00 A3020 RMK AO2
       T00521002
METAR KFLY 181455Z AUTO 22006KT 10SM BKN065 OVC075 05/00 A3020 RMK AO2
       T00450001
METAR KFLY 181435Z AUTO 23006KT 10SM BKN060 BKN085 04/00 A3020 RMK AO2
       T00350004

KFCS 181300Z 1813/1919 17009KT 9999 SCT030 510002 QNH3016INS
     BECMG 1817/1818 35012G18KT 9999 FEW090 520002 QNH3018INS
     TEMPO 1818/1902 36015G25KT 520009
     BECMG 1901/1902 03009KT 9999 SKC QNH3021INS
     BECMG 1908/1909 30009KT 9999 SKC QNH3027INS
     BECMG 1916/1917 22012KT 9999 SKC QNH3024INS TX17/1823Z
     TN03/1813Z
METAR KFCS 181458Z AUTO 24003KT 10SM FEW085 07/02 A3018 RMK AO2 SLP218
       T00740019 50009 $
METAR KFCS 181358Z AUTO 15005KT 10SM CLR 06/03 A3019 RMK AO2 SLP222
       T00560026 $

KPUB 181120Z 1812/1912 VRB06KT P6SM FEW060
     FM181600 36015G25KT P6SM SCT100 BKN200
     FM181900 01020G30KT P6SM SCT100 BKN200
     FM190200 06008KT P6SM SCT250
     FM190600 VRB06KT P6SM SKC
METAR KPUB 181453Z 19006KT 10SM CLR 10/03 A3018 RMK AO2 SLP200 T01000033
       51013
METAR KPUB 181353Z 19007KT 10SM CLR 08/03 A3018 RMK AO2 SLP197
       T00830033
METAR KPUB 181253Z 00000KT 10SM CLR 04/02 A3016 RMK AO2 SLP195
       T00440022


METAR KTAD 181454Z AUTO 29006KT 10SM CLR 08/02 A3021 RMK AO2 SLP200
       T00830022 51011
METAR KTAD 181354Z AUTO 27008KT 10SM FEW042 06/03 A3021 RMK AO2 SLP203
       T00610033
METAR KTAD 181254Z AUTO 27005KT 10SM BKN044 OVC060 04/03 A3018 RMK AO2
       SLP197 T00390028

METAR KLHX 181453Z AUTO 32011KT 10SM BKN080 OVC120 11/01 A3018 RMK AO2
       SLP194 T01060006 51021 TSNO
METAR KLHX 181353Z AUTO 29013KT 10SM FEW075 OVC100 09/02 A3016 RMK AO2
       SLP190 T00940017 TSNO
METAR KLHX 181253Z AUTO 29011KT 10SM OVC080 08/02 A3013 RMK AO2 SLP175
       T00830017 TSNO

METAR KLAA 181453Z AUTO 34019G30KT 10SM SCT085 BKN110 14/00 A3014 RMK
       AO2 PK WND 34030/1452 SLP185 T01390000 51026
METAR KLAA 181353Z AUTO 27013G18KT 10SM FEW120 10/02 A3011 RMK AO2
       SLP179 T01000022
METAR KLAA 181253Z AUTO 10SM OVC100 08/03 A3009 RMK AO2 SLP167 T00780028

METAR KSPD 181456Z AUTO 34021G26KT 12/01 A3013 RMK AO1 PK WND 34026/1456
       SLP176 T01170011 51020
METAR KSPD 181356Z AUTO 31015G23KT 09/02 A3013 RMK AO1 SLP175
       T00890022

Sunrise/Sunset for 04/18/2019
Burlington - 06:07:40 MDT / 19:29:12 MDT
Pueblo     - 06:18:29 MDT / 19:37:10 MDT
Lamar      - 06:10:42 MDT / 19:28:55 MDT

Pueblo (KPUX) 04/18/19 15:21 UTC
Radar VAD winds      Height      Dir/Spd(kt)
                  16000 FT MSL...323/043
                  15000 FT MSL...326/047
                  14300 FT MSL...310/037
                  14000 FT MSL...313/039
                  13000 FT MSL...316/034
                  12400 FT MSL...311/031
                  12000 FT MSL...300/026
                  11000 FT MSL...311/028
                  10900 FT MSL...311/021
                  10000 FT MSL...315/022
                   9700 FT MSL...325/030
                   8000 FT MSL...320/014
                   6000 FT MSL...232/012
                   5900 FT MSL...266/007
                   5700 FT MSL...238/007

Pueblo Aviation Discussion
Issued at 1021 UTC Thursday, April 18, 2019

.AVIATION...(For the 12Z TAFS through 12Z Friday morning)
Issued at 420 AM MDT Thu Apr 18 2019
VFR conditions are expected for KALS, KCOS, and KPUB throughout the
forecast period. Low clouds will remain over KPUB and KCOS
throughout most of the morning hours. Dry conditions are expected.


* * * * * Northwest Colorado * * * * *

METAR KCAG 181453Z AUTO 26009KT 10SM SCT047 OVC055 07/M01 A3033 RMK AO2
       SLP251 T00721011 51021
METAR KCAG 181353Z AUTO 30003KT 10SM OVC050 05/M01 A3031 RMK AO2 SLP245
       T00501006
METAR KCAG 181253Z AUTO 24010KT 10SM OVC065 06/M01 A3028 RMK AO2 SLP228
       T00561011

METAR KHDN 181456Z AUTO 31013G16KT 10SM SCT033 OVC050 06/M02 A3032 RMK
       AO2 SLP250 T00561017 51017
METAR KHDN 181356Z AUTO 28008KT 10SM OVC060 05/M02 A3031 RMK AO2 SLP242
       T00501017
METAR KHDN 181256Z AUTO 27007KT 10SM FEW040 OVC060 03/M01 A3029 RMK AO2
       SLP235 T00331011

METAR KSBS 181515Z AUTO 25008KT 10SM SCT039 BKN050 OVC060 04/00 A3030
       RMK AO1 T00431005
METAR KSBS 181455Z AUTO 26009KT 10SM SCT038 OVC060 04/00 A3030 RMK AO1
       T00361004
METAR KSBS 181435Z AUTO 25009KT 10SM OVC060 03/00 A3029 RMK AO1
       T00321003

METAR KC07 181506Z AUTO 27008G18KT 220V320 M1/4SM -SN OVC002 A3032 RMK
       AO2
METAR KC07 181442Z AUTO 27009G19KT 210V300 M1/4SM +SN OVC002 A3031 RMK
       AO2
METAR KC07 181424Z AUTO 27007G19KT M1/4SM +SN OVC002 A3030 RMK AO2

METAR K33V 181515Z AUTO 35015G18KT 10SM SCT042 SCT048 03/M04 A3028 RMK
       AO1
METAR K33V 181455Z AUTO 35015G21KT 10SM SCT041 BKN048 02/M04 A3028
        RMK AO1
METAR K33V 181435Z AUTO 35014G21KT 10SM SCT040 BKN049 03/M05 A3028 RMK
       AO1

METAR KEEO 181453Z AUTO 00000KT 10SM CLR 06/M01 A3033 RMK AO2 SLP237
        T00611006 51016
METAR KEEO 181353Z AUTO 00000KT 10SM CLR 02/M01 A3031 RMK AO2 SLP238
       T00221011
METAR KEEO 181253Z AUTO 00000KT 10SM FEW070 01/M02 A3028 RMK AO2 SLP228
       T00111017

METAR K20V 181512Z AUTO 32012G19KT 10SM CLR 06/M02 A3030 RMK AO2
METAR K20V 181448Z AUTO 33014G18KT 10SM SCT060 SCT070 05/M02 A3030 RMK
       AO2
METAR K20V 181454Z AUTO 32014G18KT 10SM SCT070 05/M02 A3030 RMK AO2

METAR KGNB 181505Z AUTO 28009KT 10SM BKN023 BKN028 OVC033 03/M02 A3027
       RMK AO2 T00251024
METAR KGNB 181445Z AUTO 27008G16KT 10SM BKN021 OVC027 02/M02 A3028 RMK
       AO2 T00151023
METAR KGNB 181430Z AUTO 28011KT 10SM BKN023 OVC029 01/M02 A3027 RMK AO2
       T00121021

METAR K0CO 181524Z AUTO OVC002 M08/M14 A3020 RMK AO2 PWINO
METAR K0CO 181506Z AUTO 31035KT OVC002 M08/M14 A3022 RMK AO2 PWINO
METAR K0CO 181442Z AUTO 32039KT BKN002 OVC006 M08/M14 A3019 RMK AO2
       PWINO

KGJT 181130Z 1812/1912 10005KT P6SM SKC
     FM182000 30005KT P6SM SKC
     FM190200 VRB03KT P6SM SKC
     FM190600 10005KT P6SM SKC
METAR KGJT 181453Z 00000KT 10SM CLR 09/M01 A3032 RMK AO2 SLP238
       T00941011 53024
METAR KGJT 181353Z 00000KT 10SM CLR 06/M01 A3029 RMK AO2 SLP231 T00611011
METAR KGJT 181253Z 02007KT 10SM CLR 06/M03 A3026 RMK AO2 SLP215
       T00561028

KRIL 181130Z 1812/1912 VRB03KT P6SM SCT080
     FM182000 30007KT P6SM FEW080 FEW250
     FM190200 11003KT P6SM FEW090 FEW250
METAR KRIL 181453Z AUTO 29007KT 10SM CLR 08/M02 A3030 RMK AO2 SLP237
       T00831017 50015
METAR KRIL 181353Z AUTO 00000KT 10SM CLR 04/M01 A3031 RMK AO2 SLP241
       T00391011
METAR KRIL 181253Z AUTO 00000KT 10SM CLR 02/M02 A3028 RMK AO2 SLP229
       T00171017

METAR K5SM 181512Z AUTO 32005KT 10SM OVC012 M03/M06 A3041 RMK AO2
METAR K5SM 181454Z AUTO 00000KT 10SM BKN012 OVC018 M03/M06 A3040 RMK
        AO2
METAR K5SM 181430Z AUTO 27005G16KT 10SM BKN010 BKN016 BKN028 M03/M06
       A3040 RMK AO2

KEGE 181130Z 1812/1912 VRB03KT P6SM OVC070
     FM181600 VRB03KT P6SM SCT070
     FM182000 25012G18KT P6SM FEW070 FEW180
     FM190200 09004KT P6SM FEW070 FEW250
METAR KEGE 181456Z 00000KT 10SM OVC065 07/M03 A3032 RMK AO2 SLP258
       T00671028 51015
METAR KEGE 181356Z 08004KT 10SM OVC070 03/M03 A3031 RMK AO2 SLP258
       T00331028
METAR KEGE 181256Z 12005KT 10SM OVC075 02/M03 A3029 RMK AO2 SLP249
       T00171033

KASE 181130Z 1812/1912 00000KT P6SM OVC045
     FM181700 VRB03KT P6SM SCT050
     FM181800 35006KT P6SM SCT050
     FM182000 33010G15KT P6SM FEW050 FEW150
     FM190200 21005KT P6SM FEW070 FEW200
METAR KASE 181453Z COR 04004KT 10SM BKN049 04/M04 A3032 RMK AO2 SLP208
        T00441044 53015
METAR KASE 181453Z 04004KT 10SM OVC049 04/M04 A3032 RMK AO2 SLP208
       T00441044 53015
METAR KASE 181353Z 00000KT 10SM BKN050 OVC060 03/M04 A3031 RMK AO2
       SLP206 T00281039

METAR KCCU 181512Z AUTO 28024G31KT OVC002 M04/M06 A3031 RMK AO2
       PWINO
METAR KCCU 181517Z AUTO 29017G31KT BKN002 OVC006 M04/M06 A3032 RMK AO2
       PWINO
METAR KCCU 181512Z AUTO 28024G31KT OVC002 M04/M06 A3031 RMK AO2
       PWINO

METAR KLXV 181453Z AUTO 31013KT 10SM SCT036 BKN045 OVC050 M02/M06 A3030
       RMK AO2 SNE1355 SLP199 P0000 60000 T10221061 53014
METAR KLXV 181353Z AUTO 30010KT 8SM -SN BKN042 OVC050 M03/M06 A3028
        RMK AO2 SNB04 SLP193 P0000 T10331061
METAR KLXV 181253Z AUTO 28004KT 10SM SCT043 OVC050 M04/M06 A3025 RMK AO2
       SLP173 T10391061

Sunrise/Sunset for 04/18/2019
Rangely           - 06:32:37 MDT / 19:56:18 MDT
Grand Junction    - 06:33:06 MDT / 19:54:01 MDT
Steamboat Springs - 06:24:14 MDT / 19:49:02 MDT

Grand Junction (KGJX) 04/18/19 15:08 UTC
Radar VAD winds      Height      Dir/Spd(kt)
                  13000 FT MSL...010/023
                  12000 FT MSL...004/026
                  11000 FT MSL...003/010
                  11000 FT MSL...005/020

Grand Junction Aviation Discussion
Issued at 1135 UTC Thursday, April 18, 2019

.AVIATION...(For the 12Z TAFS through 12Z Friday morning)
Issued at 535 AM MDT Thu Apr 18 2019
A weak disturbance will keep mid-clouds in place over the upper
Yampa River and upper Colorado River Basins through the latter
part of the morning. As a result, KEGE and KASE are expected to
have CIGS below ILS breakpoints through 16Z, and possibly as late
as 18Z. Elsewhere, sunny or mostly sunny skies will prevail, and
all TAF sites will have VFR conditions through the next 24 hours.


* * * * * Southwest Colorado * * * * *

METAR KAJZ 181515Z AUTO 12003KT 10SM CLR 10/M02 A3034 RMK AO2
       T01041021
METAR KAJZ 181455Z AUTO 13004KT 10SM SCT080 10/M02 A3033 RMK AO2
       T00971024
METAR KAJZ 181435Z AUTO 08005KT 10SM SCT080 08/M02 A3034 RMK AO2
       T00831024

KMTJ 181130Z 1812/1912 15005KT P6SM SKC
     FM181800 36005KT P6SM SKC
     FM182000 33007KT P6SM SKC
     FM190200 14005KT P6SM SKC
METAR KMTJ 181453Z AUTO 00000KT 10SM CLR 08/M03 A3036 RMK AO2 SLP244
       T00831028 51020
METAR KMTJ 181353Z AUTO 16007KT 10SM CLR 04/M03 A3035 RMK AO2 SLP243
       T00441033
METAR KMTJ 181253Z AUTO 14008KT 10SM CLR 01/M04 A3032 RMK AO2 SLP235
       T00111044

METAR KGUC 181456Z AUTO 24010KT 10SM CLR 06/M06 A3032 RMK AO2 SLP246
       T00561061 51019
METAR KGUC 181356Z AUTO 24007KT 10SM CLR 03/M05 A3031 RMK AO2 SLP246
       T00281050
METAR KGUC 181256Z AUTO 00000KT 10SM CLR M02/M06 A3029 RMK AO2 SLP243
       T10221056 FZRANO

METAR K7BM 181506Z AUTO 34004G14KT 10SM CLR 03/M12 A3027 RMK AO2
METAR K7BM 181448Z AUTO 00000KT 10SM CLR 03/M11 A3027 RMK AO2
METAR K7BM 181424Z AUTO 00000KT 10SM CLR 02/M11 A3028 RMK AO2

METAR KAEJ 181515Z AUTO 33016G21KT 10SM CLR 09/M09 A3024 RMK AO2
       T00851092
METAR KAEJ 181455Z AUTO 31013KT 10SM CLR 07/M09 A3023 RMK AO2 T00741090
METAR KAEJ 181435Z AUTO 30007KT 10SM CLR 07/M09 A3024 RMK AO2
       T00651091

METAR KANK 181515Z AUTO 00000KT 10SM CLR 07/M06 A3032 RMK AO1
       T00661058
METAR KANK 181455Z AUTO 00000KT 10SM CLR 06/M04 A3032 RMK AO1 T00571044
METAR KANK 181435Z AUTO 16003KT 10SM CLR 05/M04 A3032 RMK AO1
       T00461037

METAR KMYP 181512Z AUTO 27024G29KT 10SM CLR M05/M09 A3043 RMK AO2
METAR KMYP 181454Z AUTO 26021G27KT 10SM CLR M06/M09 A3043 RMK AO2
METAR KMYP 181436Z AUTO 25018G26KT 10SM SCT002 M06/M08 A3042 RMK AO2

METAR KAIB 181515Z AUTO 00000KT 10SM CLR 10/M05 A3035 RMK AO2
METAR KAIB 181455Z AUTO 13004KT 10SM CLR 09/M03 A3035 RMK AO2
METAR KAIB 181435Z AUTO 14003KT 10SM CLR 08/M04 A3035 RMK AO2

KTEX 181130Z 1812/1912 VRB03KT P6SM FEW050
     FM181700 27008KT P6SM SKC
     FM190100 31006KT P6SM SKC
     FM190200 02005KT P6SM SKC
     FM190500 11005KT P6SM SKC
METAR KTEX 181515Z AUTO 00000KT 10SM CLR 02/M05 A3039 RMK AO2
METAR KTEX 181455Z AUTO 00000KT 10SM CLR 01/M05 A3039 RMK AO2
METAR KTEX 181435Z AUTO 00000KT 10SM CLR 01/M05 A3038 RMK AO2

METAR K04V 181518Z AUTO 00000KT 10SM CLR 07/M08 A3026 RMK AO2
METAR K04V 181454Z AUTO 31006G17KT 10SM CLR 06/M07 A3026 RMK AO2
METAR K04V 181436Z AUTO 32009G18KT 10SM CLR 06/M07 A3026 RMK AO2

METAR KCEZ 181453Z AUTO 34007KT 10SM CLR 12/M03 A3025 RMK AO2 SLP197
       T01171033 51014
METAR KCEZ 181353Z AUTO 00000KT 10SM CLR 08/M01 A3024 RMK AO2 SLP199
       T00781011
METAR KCEZ 181253Z AUTO 15003KT 10SM CLR 01/M04 A3021 RMK AO2 SLP201
       T00061039

KDRO 181130Z 1812/1912 35009KT P6SM SKC
     FM181600 VRB04KT P6SM SKC
     FM182000 27014G22KT P6SM SKC
     FM190200 30014G22KT P6SM SKC
     FM190600 36005KT P6SM SKC
METAR KDRO 181453Z AUTO 09004KT 10SM CLR 07/M04 A3023 RMK AO2 SLP199
        T00721044 51027
METAR KDRO 181353Z AUTO 09004KT 10SM CLR 03/M06 A3021 RMK AO2 SLP201
       T00331061
METAR KDRO 181253Z AUTO 09007KT 10SM CLR M01/M07 A3016 RMK AO2 SLP188
       T10061072

METAR KPSO 181515Z AUTO 16003KT 10SM CLR 10/M10 A3024 RMK AO2
       T01031098
METAR KPSO 181455Z AUTO 18004KT 10SM CLR 09/M08 A3024 RMK AO2
       T00871081
METAR KPSO 181435Z AUTO 20004KT 10SM CLR 07/M07 A3024 RMK AO2
       T00741068

METAR KCPW 181506Z AUTO 33013G23KT 10SM CLR M02/M12 A3040 RMK AO2
METAR KCPW 181448Z AUTO 35008G18KT 320V040 10SM CLR M03/M12 A3040 RMK
       AO2
METAR KCPW 181424Z AUTO 35007G22KT 330V040 10SM CLR M03/M12 A3040 RMK
       AO2

KALS 181201Z 1812/1912 VRB06KT P6SM SKC
     FM181500 35015G25KT P6SM SKC
     FM181800 35020G35KT P6SM SKC
     FM190300 35007KT P6SM SKC
     FM190600 VRB06KT P6SM SKC
METAR KALS 181452Z AUTO 34023G33KT 10SM CLR 08/M11 A3024 RMK AO2 PK WND
       33033/1448 SLP204 T00781106 51021
METAR KALS 181352Z AUTO 34012KT 10SM CLR 06/M08 A3023 RMK AO2 SLP202
       T00611083
METAR KALS 181252Z AUTO 35011KT 10SM CLR 04/M08 A3018 RMK AO2 SLP173
       T00391083 $

Sunrise/Sunset for 04/18/2019
Vail    - 06:23:33 MDT / 19:46:00 MDT
Durango - 06:32:45 MDT / 19:48:54 MDT
Alamosa - 06:24:32 MDT / 19:41:09 MDT

Grand Junction (KGJX) 04/18/19 15:08 UTC
Radar VAD winds      Height      Dir/Spd(kt)
                  13000 FT MSL...010/023
                  12000 FT MSL...004/026
                  11000 FT MSL...003/010
                  11000 FT MSL...005/020

Grand Junction Aviation Discussion
Issued at 1135 UTC Thursday, April 18, 2019

.AVIATION...(For the 12Z TAFS through 12Z Friday morning)
Issued at 535 AM MDT Thu Apr 18 2019
A weak disturbance will keep mid-clouds in place over the upper
Yampa River and upper Colorado River Basins through the latter
part of the morning. As a result, KEGE and KASE are expected to
have CIGS below ILS breakpoints through 16Z, and possibly as late
as 18Z. Elsewhere, sunny or mostly sunny skies will prevail, and
all TAF sites will have VFR conditions through the next 24 hours.


* * * * * Arizona * * * * *

KPGA 181120Z 1812/1912 VRB05KT P6SM SKC
METAR KPGA 181453Z AUTO 00000KT 10SM CLR 14/M01 A3029 RMK AO2 SLP217
       T01391006 53028 TSNO
METAR KPGA 181353Z AUTO 22003KT 10SM CLR 12/M01 A3025 RMK AO2 SLP204
        T01221011 TSNO
METAR KPGA 181253Z AUTO 20003KT 10SM CLR 09/M01 A3022 RMK AO2 SLP195
        T00941011 TSNO

METAR KRQE 181453Z AUTO 35007KT 10SM CLR 08/M02 A3029 RMK AO2 SLP195
       T00831017 51027
METAR KRQE 181353Z AUTO 00000KT 10SM CLR 03/M02 A3027 RMK AO2 SLP199
        T00281017
METAR KRQE 181253Z AUTO 00000KT 10SM CLR M01/M04 A3023 RMK AO2 SLP189
       T10061044

Flagstaff (KFSX) 04/18/19 15:16 UTC
Radar VAD winds      Height      Dir/Spd(kt)
                  10000 FT MSL...059/024
                   9200 FT MSL...038/009
                   9000 FT MSL...034/021
                   8500 FT MSL...022/011
                   8100 FT MSL...032/020
                   7800 FT MSL...019/018

Flagstaff Aviation Discussion
Issued at 1009 UTC Thursday, April 18, 2019

.AVIATION...For the 12Z Package...Breezy N to NE winds today 5-15
kts with local gusts near 20 kts through about 21Z before
decreasing. VFR conditions will continue under clear skies. Aviation
discussion not updated for TAF amendments.


* * * * * Utah * * * * *

KSLC 181438Z 1815/1918 17005KT P6SM FEW250
     FM181800 32008KT P6SM SCT250
     FM190300 14007KT P6SM FEW250
METAR KSLC 181454Z 21003KT 10SM CLR 09/03 A3037 RMK AO2 SLP266 T00940033
       51018 VISNO NW RNWY $
METAR KSLC 181354Z 15003KT 10SM FEW200 08/03 A3035 RMK AO2 SLP262
       T00780033
METAR KSLC 181254Z 30003KT 10SM FEW200 06/03 A3033 RMK AO2 SLP256
       T00560028

KVEL 181130Z 1812/1912 27004KT P6SM SKC
     FM181500 VRB03KT P6SM SKC
     FM182000 16005KT P6SM SKC
     FM190000 10005KT P6SM FEW100 FEW250
     FM190200 30005KT P6SM SKC
METAR KVEL 181453Z AUTO 12003KT 10SM CLR 08/M01 A3031 RMK AO2 SLP240
       T00781011 51018
METAR KVEL 181353Z AUTO 33003KT 10SM CLR 07/M02 A3029 RMK AO2 SLP233
       T00671017
METAR KVEL 181253Z AUTO 00000KT 10SM CLR 02/M03 A3026 RMK AO2 SLP228
       T00171028

METAR KPUC 181453Z AUTO 31004KT 10SM CLR 11/M01 A3032 RMK AO2 SLP252
       T01111011 51021
METAR KPUC 181353Z AUTO 32010G19KT 10SM CLR 09/M01 A3030 RMK AO2 SLP248
       T00891011

KCNY 181130Z 1812/1912 VRB04KT P6SM SKC
METAR KCNY 181453Z AUTO 00000KT 10SM CLR 11/M01 A3029 RMK AO2 SLP233
        T01111011 51020
METAR KCNY 181353Z AUTO 00000KT 10SM CLR 06/00 A3027 RMK AO2 SLP232
       T00610000
METAR KCNY 181253Z AUTO 00000KT 10SM CLR 05/M01 A3025 RMK AO2 SLP221
        T00501011


Salt Lake City (KMTX) 04/18/19 15:12 UTC
Radar VAD winds      Height      Dir/Spd(kt)
                  22000 FT MSL...340/003
                  20000 FT MSL...071/005
                  16000 FT MSL...009/003
                  14000 FT MSL...279/018
                  13000 FT MSL...293/007
                  12100 FT MSL...069/008
                   9000 FT MSL...326/002
                   9000 FT MSL...316/002
                   8300 FT MSL...021/002
                   8000 FT MSL...299/004
                   7600 FT MSL...049/002
                   7100 FT MSL...273/001
                   7000 FT MSL...276/002
                   6900 FT MSL...286/001

Salt Lake City Aviation Discussion
Issued at 0949 UTC Thursday, April 18, 2019

.AVIATION...Southerly winds at the SLC terminal will shift to the
northwest between 17-19Z. Otherwise, mainly clear skies will be
the rule for the day.


* * * * * Wyoming * * * * *

KEVW 181120Z 1812/1912 24006KT P6SM FEW040
     FM181900 26012G18KT P6SM SKC
     FM190300 27012KT P6SM SKC=
METAR KEVW 181453Z AUTO 21009KT 10SM CLR 04/M01 A3039 RMK AO2 SLP271
       T00391011 53012
METAR KEVW 181353Z AUTO 21007KT 10SM CLR 01/M02 A3037 RMK AO2 SLP272
       T00111022
METAR KEVW 181253Z AUTO 24009KT 10SM CLR 00/M03 A3035 RMK AO2 SLP268
       T00001033 $

KRKS 181129Z 1812/1912 25017KT P6SM SKC
     FM181900 27013G23KT P6SM SKC
     FM190100 24008KT P6SM SKC
METAR KRKS 181454Z AUTO 27017KT 10SM CLR 04/M01 A3033 RMK AO2 SLP255
       T00441011 51019
METAR KRKS 181354Z AUTO 27014KT 10SM CLR 03/M02 A3031 RMK AO2 SLP254
       T00281017
METAR KRKS 181254Z AUTO 25013KT 10SM CLR 01/M02 A3029 RMK AO2 SLP245
       T00111017

KRWL 181120Z 1812/1912 28018G28KT P6SM SCT050
     FM181500 29022G32KT P6SM BKN050
     FM190100 25007KT P6SM SCT100
METAR KRWL 181453Z AUTO 32013KT 10SM CLR 06/M05 A3029 RMK AO2 SLP230
       T00561050 51022
METAR KRWL 181353Z AUTO 31008KT 10SM CLR 03/M03 A3028 RMK AO2 SLP225
        T00331028
METAR KRWL 181253Z AUTO 30008KT 10SM CLR 01/M02 A3025 RMK AO2 SLP217
        T00061022

KLAR 181120Z 1812/1912 31012G18KT P6SM VCSH BKN050
     FM181500 32020G30KT P6SM VCSH BKN050
     FM181800 32030G40KT P6SM BKN050
     FM190300 27008KT P6SM SCT100
METAR KLAR 181453Z AUTO 32020G28KT 10SM OVC055 03/M03 A3022 RMK AO2 PK
       WND 32028/1450 SLP208 T00281028 51022
METAR KLAR 181353Z AUTO 32017G23KT 10SM FEW043 OVC060 01/M02 A3021 RMK
       AO2 PK WND 32026/1331 SLP205 T00111022
METAR KLAR 181253Z AUTO 31019G23KT 10SM FEW040 BKN055 OVC070 01/M02
       A3017 RMK AO2 SLP181 T00111022

KCYS 181120Z 1812/1912 33012G18KT P6SM VCSH BKN050
     FM181500 34020G30KT P6SM VCSH BKN050
     FM181800 34030G40KT P6SM BKN050
     FM190300 30007KT P6SM SCT100
METAR KCYS 181453Z 01010KT 10SM BKN010 BKN015 OVC070 03/02 A3020 RMK
        AO2 CIG 008V012 SLP217 60000 T00330017 51023
SPECI KCYS 181446Z 01012G18KT 10SM BKN010 BKN055 OVC070 03/02 A3019 RMK
       AO2 T00280017
METAR KCYS 181353Z 01013G16KT 10SM BKN060 OVC075 03/01 A3018 RMK AO2
        SNE02 SLP197 P0000 T00280006

Riverton (KRIW) 04/18/19 14:58 UTC
Radar VAD winds      Height      Dir/Spd(kt)
                   6700 FT MSL...056/013

Cheyenne (KCYS) 04/18/19 15:17 UTC
Radar VAD winds      Height      Dir/Spd(kt)
                  16000 FT MSL...311/041
                  15000 FT MSL...310/049
                  14100 FT MSL...319/051
                  14000 FT MSL...318/051
                  13000 FT MSL...318/048
                  12400 FT MSL...321/047
                  12000 FT MSL...323/047
                  11000 FT MSL...332/045
                  10700 FT MSL...335/044
                  10000 FT MSL...335/034
                   9000 FT MSL...337/030
                   8900 FT MSL...324/042
                   8000 FT MSL...335/024
                   7200 FT MSL...314/037
                   7100 FT MSL...330/012

Riverton Aviation Discussion
Issued at 0910 UTC Thursday, April 18, 2019

.AVIATION...12Z Issuance
East of the Divide...KCOD/KCPR/KLND/KRIW/KWRL Terminals
VFR conditions will occur at the terminal sites. A gusty wind will
occur at KCPR airport from 16Z until 01Z, then decrease.
West of the Divide...KBPI/KJAC/KPNA/KRKS Terminals
VFR conditions will occur at the terminal sites. A gusty wind will
occur at KRKS, KBPI, and KPNA airports after 18Z through 01Z, then
decrease.

Cheyenne Aviation Discussion
Issued at 1129 UTC Thursday, April 18, 2019

.AVIATION...(For the 12Z TAFS through 12Z Friday morning)
Issued at 520 AM MDT Thu Apr 18 2019
VFR prevails. Isolated to widely scattered rain/snow showers could
affect southeast Wyoming and western Nebraska terminals during the
morning hours, w/ activity gradually diminishing by afternoon over
much of the area. Heavier showers may be accompanied by brief MVFR
ceilings & visibilities, but low confidence precludes mention with
this TAF package. Otherwise, strong and gusty northwest winds will
occur from late this AM through this afternoon across a large part
of the region. Widespread wind gusts in excess of 30-40 knots will
be likely. Winds should decrease after about 0 to 3z this evening.


* * * * * Nebraska * * * * *

METAR KIBM 181515Z AUTO 33023G30KT 10SM SCT023 07/01 A3015 RMK AO2
       T00680014
METAR KIBM 181455Z AUTO 33017G22KT 10SM SCT016 SCT042 SCT050 06/03 A3016
       RMK AO2 T00600029
METAR KIBM 181435Z AUTO 31016G23KT 10SM -RA SCT013 SCT044 OVC070 05/03
       A3016 RMK AO2 T00450032

KSNY 181120Z 1812/1912 32012G20KT P6SM VCSH BKN050
     FM181500 34025G35KT P6SM VCSH BKN050
     FM181800 34035G45KT P6SM BKN050
     FM190200 30005KT P6SM SCT100
METAR KSNY 181453Z AUTO 32022G34KT 10SM SCT100 BKN110 08/02 A3013 RMK
       AO2 PK WND 32034/1439 SLP193 T00780017 51019
METAR KSNY 181353Z AUTO 33017G23KT 10SM BKN060 OVC080 07/01 A3012 RMK
       AO2 SLP190 T00670011
METAR KSNY 181253Z AUTO 31012KT 10SM BKN090 OVC110 05/02 A3010 RMK AO2
       SLP182 T00500017

METAR KOGA 181515Z AUTO 32019G24KT 10SM CLR 12/01 A3007 RMK AO2
       T01200009
METAR KOGA 181455Z AUTO 34019G26KT 10SM CLR 12/01 A3007 RMK AO2
       T01150007
METAR KOGA 181435Z AUTO 33016G22KT 10SM CLR 11/02 A3007 RMK AO2
       T01050017


KMCK 181120Z 1812/1912 30010KT P6SM FEW050 FEW200
     FM181400 32015G22KT P6SM FEW050 FEW150
     FM181700 33024G34KT P6SM VCSH SCT060 SCT150
     FM190000 35016KT P6SM BKN060
     FM190500 31005KT P6SM FEW060
METAR KMCK 181453Z AUTO 34018KT 10SM CLR 13/03 A3003 RMK AO2 PK WND
       34029/1404 SLP168 T01280028 51024
METAR KMCK 181353Z AUTO 33019G25KT 10SM CLR 10/03 A3001 RMK AO2 PK WND
       33026/1318 SLP162 T01000028
METAR KMCK 181253Z AUTO 33014KT 10SM CLR 07/02 A2998 RMK AO2 SLP149
       T00670022

North Platte (KLNX) 04/18/19 15:16 UTC
Radar VAD winds      Height      Dir/Spd(kt)
                  14000 FT MSL...326/040
                  12000 FT MSL...322/036
                  10000 FT MSL...322/036
                   8000 FT MSL...320/022
                   7000 FT MSL...340/035
                   6000 FT MSL...342/035
                   5000 FT MSL...336/029
                   4000 FT MSL...338/021
                   3700 FT MSL...330/028

North Platte Aviation Discussion
Issued at 1107 UTC Thursday, April 18, 2019

.AVIATION...(For the 12Z TAFS through 12Z Friday morning)
Issued at 605 AM CDT Thu Apr 18 2019
VFR conditions are expected through the TAF period. The main
concerns are the expected development of gusty northwest winds of
30 knots or higher and the development of scattered showers and
weak storms. Confidence in any of these directly impacting the TAF
sites is low so will exclude for now.


* * * * * Kansas * * * * *

KGLD 181120Z 1812/1912 30011KT P6SM FEW060 FEW120
     FM181400 33015G23KT P6SM FEW050 SCT150
     FM181700 34027G37KT P6SM VCSH SCT050 SCT100
     FM190100 36016G24KT P6SM BKN060
     FM190400 33007KT P6SM SKC
     FM191000 29007KT P6SM SKC
METAR KGLD 181453Z AUTO 34022G36KT 10SM BKN110 11/01 A3009 RMK AO2 PK
       WND 33036/1444 SLP182 T01060011 53022
METAR KGLD 181353Z AUTO 32017KT 10SM OVC110 08/03 A3007 RMK AO2 SLP174
       T00830028
METAR KGLD 181253Z AUTO 31011KT 10SM CLR 04/02 A3003 RMK AO2 SLP158
       T00440022

KGCK 181120Z 1812/1912 35010KT P6SM SCT200
     FM181700 34027G35KT P6SM FEW250
     FM182100 33029G39KT P6SM BKN100
     FM182300 35023G32KT P6SM SCT250
     FM190200 36012KT P6SM FEW250
METAR KGCK 181454Z 33021G28KT 10SM CLR 13/02 A3006 RMK AO2 PK WND
       33028/1454 SLP165 T01280017 51024
METAR KGCK 181354Z 32015KT 10SM CLR 09/03 A3005 RMK AO2 SLP166
       T00940028
METAR KGCK 181254Z 31007KT 10SM CLR 06/02 A3002 RMK AO2 SLP159
       T00610017

METAR KLBL 181456Z AUTO 34015KT 10SM CLR 14/03 A3008 RMK AO2 SLP173
       T01390033 50020
METAR KLBL 181356Z AUTO 33012KT 10SM 11/03 A3008 RMK AO2 SLP174
       T01110033
METAR KLBL 181256Z AUTO 31007KT 10SM CLR 07/03 A3006 RMK AO2 SLP169
       T00670033

METAR KEHA 181515Z AUTO 33014G22KT 10SM CLR 15/04 A3012 RMK AO2
       T01470044
METAR KEHA 181455Z AUTO 32016G20KT 10SM CLR 14/05 A3011 RMK AO2
       T01380049
METAR KEHA 181435Z AUTO 33018KT 10SM CLR 14/05 A3011 RMK AO2
       T01350048

Goodland (KGLD) 04/18/19 15:14 UTC
Radar VAD winds      Height      Dir/Spd(kt)
                  20000 FT MSL...322/050
                  19000 FT MSL...320/052
                  18000 FT MSL...323/052
                  17000 FT MSL...325/051
                  16000 FT MSL...329/051
                  15000 FT MSL...332/052
                  14000 FT MSL...333/051
                  13000 FT MSL...336/050
                  12000 FT MSL...340/049
                  11600 FT MSL...341/046
                  11000 FT MSL...341/043
                  10000 FT MSL...342/045
                   9900 FT MSL...340/042
                   9000 FT MSL...330/042
                   8200 FT MSL...340/041
                   8000 FT MSL...339/037
                   7000 FT MSL...342/039
                   6500 FT MSL...340/035
                   6000 FT MSL...339/034
                   5000 FT MSL...335/031
                   4700 FT MSL...338/029
                   4600 FT MSL...334/030
                   4000 FT MSL...333/028
                   4000 FT MSL...334/029

Goodland Aviation Discussion
Issued at 1431 UTC Thursday, April 18, 2019

.AVIATION...(For the 12Z TAFS through 12Z Friday morning)
Issued at 335 AM MDT Thu Apr 18 2019
For KGLD and KMCK, vfr conditions through the period. North to
northwest winds gusting 35 to 42kts expected today before quickly
subsiding and backing to the west/northwest tonight. A weather
disturbance moves south through the area during the time of peak
heating sparking isolated showers and thunderstorms. Impossible to
identify if/when a shower moves over either terminal so have added
a vcsh group from 17z-00z to cover this for now.

Dodge City Aviation Discussion
Issued at 1044 UTC Thursday, April 18, 2019

.AVIATION...(For the 12Z TAFS through 12Z Friday morning)
Issued at 538 AM CDT Thu Apr 18 2019
Only some patchy mid level ceilings were noted on the various
GOES channels in far southwest Kansas, not impacting or expected
to impact any of the terminals. The winds will quickly mix out
this morning and gusts into the upper 30s (kts) by late morning.


* * * * * Texas/Oklahoma * * * * *

KGUY 181120Z 1812/1912 35015KT P6SM BKN070
     FM181600 34029G39KT P6SM BKN070
     FM190200 33008KT P6SM SCT250=
METAR KGUY 181453Z AUTO 33012KT 10SM OVC110 13/02 A3010 RMK AO2 SLP171
       T01280022 51021
METAR KGUY 181353Z AUTO 33011KT 10SM OVC110 11/02 A3009 RMK AO2 SLP165
       T01060022
METAR KGUY 181253Z AUTO 31006KT 10SM CLR 08/02 A3007 RMK AO2 SLP159
       T00780022

KDHT 181120Z 1812/1912 35010KT P6SM BKN070
     FM181500 35022G32KT P6SM BKN070
     FM190200 33008KT P6SM SCT250
METAR KDHT 181453Z AUTO 35014G22KT 10SM CLR 13/01 A3014 RMK AO2 SLP181
       T01330011 51021

Amarillo (KAMA) 04/18/19 15:16 UTC
Radar VAD winds      Height      Dir/Spd(kt)
                  14000 FT MSL...347/038
                  13000 FT MSL...334/028
                   9000 FT MSL...002/025
                   7000 FT MSL...001/022
                   6100 FT MSL...358/022
                   6000 FT MSL...001/021
                   5300 FT MSL...356/021
                   5000 FT MSL...358/018
                   4700 FT MSL...356/017

Amarillo Aviation Discussion
Issued at 1055 UTC Thursday, April 18, 2019

.AVIATION...
North to northwest winds will pick up into the 22 to 29 knot range
with higher gusts by mid to late morning. Then winds will
decrease to less than 10 knots with sunset. A few rain showers
will be possible at the GUY TAF site today, but do not think they
will cause MVFR or IFR conditions, so will not mention at this
time. Skies are expected to remain VFR.


* * * * * New Mexico * * * * *

KFMN 181128Z 1812/1912 30010KT P6SM SKC
     FM181730 29012G20KT P6SM SKC
     FM182000 30018G30KT P6SM SKC
     FM190200 30008KT P6SM SKC
     FM190800 06007KT P6SM FEW250
METAR KFMN 181453Z 26009KT 10SM CLR 11/M03 A3020 RMK AO2 SLP200
       T01111028 51023
METAR KFMN 181353Z 24008KT 10SM CLR 08/M03 A3019 RMK AO2 SLP196 T00831028
METAR KFMN 181253Z 27006KT 10SM CLR 05/M04 A3015 RMK AO2 SLP184 T00501039

METAR KSKX 181456Z AUTO 32007KT 10SM CLR 06/01 A3026 RMK AO2 SLP235
       T00610006 51023 $
METAR KSKX 181356Z AUTO 33003KT 10SM CLR 04/02 A3025 RMK AO2 SLP232
       T00390022 $
METAR KSKX 181256Z AUTO 10SM CLR M03/M03 A3021 RMK AO2 SLP232 T10281028
       FZRANO $

KLVS 181128Z 1812/1912 01006KT P6SM SCT130
     FM181900 31010G16KT P6SM SCT130
     FM182300 04008KT P6SM FEW130
METAR KLVS 181453Z AUTO 05012KT 10SM FEW013 05/02 A3025 RMK AO2 SLP207
        T00500022 51029
SPECI KLVS 181426Z AUTO 05011KT 10SM SCT011 05/02 A3023 RMK AO2
       T00500017
SPECI KLVS 181410Z AUTO 04009KT 10SM FEW007 BKN012 04/02 A3023 RMK AO2
       T00440022

METAR KRTN 181453Z AUTO 34012KT 10SM CLR 07/01 A3021 RMK AO2 SLP197
       T00720006 50020
SPECI KRTN 181421Z AUTO 35008KT 10SM FEW026 07/01 A3021 RMK AO2
       T00670011
METAR KRTN 181353Z AUTO 35007KT 10SM OVC025 06/02 A3021 RMK AO2 SLP201
       T00610017

METAR KCAO 181455Z AUTO 34016G19KT 10SM FEW055 FEW070 11/01 A3017 RMK
       AO2 SLP194 T01110006 51022
METAR KCAO 181355Z AUTO 32013KT 10SM BKN070 08/02 A3015 RMK AO2 SLP189
       T00780017

Albuquerque (KABX) 04/18/19 15:10 UTC
Radar VAD winds      Height      Dir/Spd(kt)
                  15000 FT MSL...007/001
                  11000 FT MSL...293/008
                   9000 FT MSL...056/015
                   8000 FT MSL...025/014
                   7000 FT MSL...346/015
                   6900 FT MSL...346/015
                   6300 FT MSL...347/013

Albuquerque Aviation Discussion
Issued at 1133 UTC Thursday, April 18, 2019

.AVIATION...
12Z TAF CYCLE
Remnant low clouds and patchy fog have been left behind over portions
of central New Mexico where MVFR to LIFR conditions will remain
possible. Areas outside of the Rio Grande valley and other central
sections will predominantly stay at VFR this morning. Clearing skies
will then be the trend late in the morning into the afternoon with
breezy conditions found in the northwestern corner of New Mexico and
also along the eastern border of the state.
52

* * * * * Winds and Temperatures Aloft Forecasts * * * * *

DATA BASED ON 181200Z
VALID 181800Z   FOR USE 1700-2100Z. TEMPS NEG ABV 24000
FT  3000    6000   9000    12000   18000   24000  30000  34000  39000
SLC      9900    3607+03 3518-01 3431-15 3331-28 324443 325251 326262
BCE                      0216+02 3423-13 3225-27 333841 334250 324661
LND              3208+00 3327-05 3452-16 3457-29 336545 337354 339062
RKS              3014    3423-04 3449-16 3452-29 336245 337353 349162
GJT              3607+02 3531-02 3546-15 3551-28 336044 337153 348661
FMN              3007+05 3628+01 3539-15 3548-28 346044 347253 358360
ABQ              9900+04 3414-01 3646-15 3655-29 356944 348053 357158
MBW              3224    3337-10 3477-18 3586-30 358846 348955 348958
DEN              3517-01 3333-08 3479-19 3590-31 359547 349254 348155
PUB              3412+01 3330-06 3578-18 3585-30 358646 348554 345854
ALS                      3425-03 3556-17 3565-30 347545 348754 346359
TCC      0209    3512+01 3226-05 3450-17 3559-31 357446 357453 335754
BFF      3328    3431-05 3439-12 3477-23 8504-32 850947 359253 345851
GLD      3429    3430-04 3442-12 3357-26 3488-34 348646 336848 314447
GCK      3427+05 3440-03 3443-10 3354-26 3467-33 336344 315347 313848
GAG      3325+05 3538-02 3440-09 3143-22 3146-33 314744 303846 292650
AMA      3524    3638-01 3447-07 3250-18 3459-32 346946 335751 333450
---------------------------------------------------------------------

DATA BASED ON 181200Z
VALID 190000Z   FOR USE 2100-0600Z. TEMPS NEG ABV 24000
FT  3000    6000   9000    12000   18000   24000  30000  34000  39000
SLC      9900    3205+07 3313+00 3125-14 3229-27 323743 314251 314561
BCE                      9900+03 3217-14 3222-26 313641 304050 304260
LND              2907+05 3124-02 3336-15 3344-28 336244 337153 327762
RKS              3018    3222-02 3332-15 3345-28 335944 336753 327362
GJT              3408+06 3524+00 3434-14 3342-27 335442 335951 336761
FMN              3221+09 3620+02 3434-14 3342-27 335842 346350 336960
ABQ              3116+11 3119+02 3541-14 3448-28 346642 347249 337359
MBW              3123    3129-06 3451-17 3560-29 347645 348654 339059
DEN              3416+03 3227-05 3563-18 3574-30 348545 349453 348757
PUB              3519+04 3227-03 3568-17 3574-30 348245 349254 348858
ALS                      3319-01 3549-16 3560-29 347344 348752 349261
TCC      3108    3015+05 3030-02 3464-19 3583-29 348944 349752 346054
BFF      3428    3330-02 3338-10 3579-18 3584-31 359246 349555 348153
GLD      3429    3430-03 3438-11 3590-19 3599-30 850145 359652 355851
GCK      3435+06 3436-03 3441-12 3572-22 8512-31 850345 358950 354549
GAG      3437+06 3437-03 3345-11 3446-25 3594-32 348743 346947 323646
AMA      3619    3127+02 3140-06 3479-21 3598-30 840346 840252 324149
---------------------------------------------------------------------

DATA BASED ON 181200Z
VALID 191200Z   FOR USE 0600-1700Z. TEMPS NEG ABV 24000
FT  3000    6000   9000    12000   18000   24000  30000  34000  39000
SLC      9900    9900+07 2810+00 2814-13 2817-26 292343 293351 294061
BCE                      2210+02 2715-13 2814-25 292742 293450 283660
LND              3110+05 3116-01 3129-14 3136-27 323643 334053 325061
RKS              3015    3017-01 3125-14 3234-27 333043 323853 315460
GJT              9900+06 3115+00 3224-13 3231-26 323443 324051 314960
FMN              9900+08 3314+02 3323-13 3228-26 323842 315250 315859
ABQ              9900+06 3316+02 3429-13 3336-26 324641 315950 316359
MBW              3014    3121-03 3235-16 3344-28 345244 345553 335861
DEN              3221+04 3326-03 3338-15 3446-28 345844 356053 336560
PUB              3216+03 3427-03 3438-15 3447-28 355844 346253 327459
ALS                      3219-01 3333-14 3445-27 345143 335851 326359
TCC      0409    3321+03 3429-01 3343-15 3453-28 336843 327551 327959
BFF      2609    3225+02 3331-05 3440-17 3450-29 346145 357254 346660
GLD      3412    3439-01 3446-05 3552-17 3562-30 357745 368555 336955
GCK      3622+02 3544-03 3555-05 3562-17 3569-30 357946 358053 337154
GAG      3528+02 3545-05 3559-07 3573-18 3575-31 348446 348252 337453
AMA      3620    3542+00 3554-05 3456-16 3463-30 347944 338351 328757
---------------------------------------------------------------------

This product is updated automatically at approximately 10, 30 and 50
minutes after each hour, 24 hours per day, 7 days per week.  It may
become unavailable at times due to system outages without prior notice.
Users are advised to check the time at the top of the product to ensure
that it is current.  Furthermore, content and format of the product are
subject to change without prior notice.

Comments and suggestions are welcome and should be directed to one of
the addresses or phone numbers shown at the bottom of this page.  In
order to expedite a response to comments or suggestions, be sure to
mention your interest in the hot-air balloon forecast.



USA.gov is the U.S. government's official web portal to all federal, state and local government web resources and services.